createdAt,value
2022-09-05T00:01:43.177Z,8.50
2022-09-05T00:05:09.791Z,8.60
2022-09-05T00:08:27.321Z,8.70
2022-09-05T00:11:53.863Z,8.50
2022-09-05T00:15:16.854Z,8.50
2022-09-05T00:24:17.193Z,8.40
2022-09-05T00:24:29.712Z,8.40
2022-09-05T00:25:53.099Z,8.30
2022-09-05T00:29:20.418Z,8.30
2022-09-05T00:33:17.345Z,8.30
2022-09-05T00:36:29.241Z,8.30
2022-09-05T00:39:36.209Z,8.30
2022-09-05T00:42:38.353Z,8.30
2022-09-05T00:46:01.966Z,8.20
2022-09-05T00:49:49.017Z,8.20
2022-09-05T00:53:07.266Z,8.10
2022-09-05T00:56:47.021Z,8.00
2022-09-05T01:00:11.682Z,8.00
2022-09-05T01:03:35.064Z,8.10
2022-09-05T01:07:14.638Z,8.10
2022-09-05T01:10:42.879Z,8.00
2022-09-05T01:14:00.511Z,7.90
2022-09-05T01:17:27.418Z,7.90
2022-09-05T01:20:48.040Z,8.00
2022-09-05T01:24:07.207Z,8.10
2022-09-05T01:27:35.182Z,8.20
2022-09-05T01:31:10.139Z,8.20
2022-09-05T01:34:41.788Z,8.20
2022-09-05T01:38:17.468Z,8.20
2022-09-05T01:41:38.122Z,8.30
2022-09-05T01:44:59.207Z,8.10
2022-09-05T01:48:07.117Z,8.00
2022-09-05T01:51:31.727Z,7.90
2022-09-05T01:54:51.173Z,7.80
2022-09-05T01:58:12.088Z,7.70
2022-09-05T02:01:32.970Z,7.80
2022-09-05T02:04:58.721Z,7.70
2022-09-05T02:08:15.020Z,7.60
2022-09-05T02:11:36.109Z,7.70
2022-09-05T02:15:00.017Z,7.70
2022-09-05T02:18:06.468Z,7.70
2022-09-05T02:21:23.873Z,7.60
2022-09-05T02:24:34.968Z,7.60
2022-09-05T02:28:20.512Z,7.50
2022-09-05T02:31:44.624Z,7.60
2022-09-05T02:35:19.247Z,7.70
2022-09-05T02:39:34.907Z,7.60
2022-09-05T02:45:12.356Z,7.60
2022-09-05T02:45:44.896Z,7.50
2022-09-05T02:49:13.976Z,7.60
2022-09-05T02:57:33.104Z,7.50
2022-09-05T02:57:35.419Z,7.50
2022-09-05T03:00:07.748Z,7.50
2022-09-05T03:03:54.292Z,7.60
2022-09-05T03:06:56.205Z,7.70
2022-09-05T03:10:16.779Z,7.60
2022-09-05T03:13:24.529Z,7.60
2022-09-05T03:17:01.715Z,7.60
2022-09-05T03:20:38.670Z,7.60
2022-09-05T03:24:00.802Z,7.50
2022-09-05T03:27:22.324Z,7.40
2022-09-05T03:30:52.558Z,7.40
2022-09-05T03:34:30.032Z,7.40
2022-09-05T03:37:55.508Z,7.40
2022-09-05T03:41:04.912Z,7.50
2022-09-05T03:44:25.199Z,7.60
2022-09-05T03:48:01.694Z,7.60
2022-09-05T03:56:20.860Z,7.40
2022-09-05T03:57:25.241Z,7.30
2022-09-05T03:58:55.879Z,7.60
2022-09-05T04:02:45.104Z,7.90
2022-09-05T04:08:14.138Z,8.10
2022-09-05T04:09:03.993Z,8.10
2022-09-05T04:12:17.881Z,8.40
2022-09-05T04:15:37.074Z,8.50
2022-09-05T04:18:45.066Z,8.70
2022-09-05T04:21:56.179Z,8.90
2022-09-05T04:25:16.330Z,9.10
2022-09-05T04:28:27.108Z,9.40
2022-09-05T04:31:34.771Z,9.50
2022-09-05T04:35:11.796Z,9.40
2022-09-05T04:38:14.943Z,9.40
2022-09-05T04:41:37.627Z,9.50
2022-09-05T04:44:55.843Z,9.80
2022-09-05T04:48:02.832Z,10.20
2022-09-05T04:51:11.606Z,10.50
2022-09-05T04:54:47.954Z,10.70
2022-09-05T04:57:58.946Z,10.90
2022-09-05T05:06:05.268Z,10.90
2022-09-05T05:06:11.745Z,11.00
2022-09-05T05:08:28.956Z,11.10
2022-09-05T05:17:54.187Z,11.40
2022-09-05T05:18:16.390Z,11.70
2022-09-05T05:19:26.226Z,12.10
2022-09-05T05:22:28.752Z,12.10
2022-09-05T05:25:40.601Z,12.40
2022-09-05T05:28:54.614Z,12.80
2022-09-05T05:32:02.435Z,13.10
2022-09-05T05:35:31.821Z,13.20
2022-09-05T05:38:48.334Z,12.90
2022-09-05T05:42:05.323Z,13.30
2022-09-05T05:45:28.985Z,13.40
2022-09-05T05:48:35.512Z,13.60
2022-09-05T05:52:13.934Z,13.70
2022-09-05T05:55:50.510Z,13.80
2022-09-05T05:59:03.030Z,13.70
2022-09-05T06:02:37.038Z,13.60
2022-09-05T06:06:08.316Z,13.50
2022-09-05T06:14:49.583Z,13.60
2022-09-05T06:15:01.623Z,13.70
2022-09-05T06:16:56.407Z,13.80
2022-09-05T06:22:06.675Z,14.10
2022-09-05T06:24:12.411Z,14.30
2022-09-05T06:28:17.378Z,14.50
2022-09-05T06:31:33.717Z,14.90
2022-09-05T06:34:43.924Z,15.00
2022-09-05T06:37:51.438Z,15.20
2022-09-05T06:41:21.623Z,15.40
2022-09-05T06:45:07.866Z,15.60
2022-09-05T06:48:44.267Z,15.70
2022-09-05T06:52:28.445Z,15.80
2022-09-05T06:56:07.173Z,15.90
2022-09-05T06:59:34.335Z,16.20
2022-09-05T07:03:00.593Z,16.40
2022-09-05T07:06:41.391Z,16.40
2022-09-05T07:10:16.688Z,16.60
2022-09-05T07:14:01.604Z,16.90
2022-09-05T07:17:24.302Z,16.90
2022-09-05T07:21:16.427Z,16.90
2022-09-05T07:24:12.940Z,16.90
2022-09-05T07:27:33.378Z,17.20
2022-09-05T07:30:53.626Z,17.30
2022-09-05T07:34:21.320Z,17.40
2022-09-05T07:37:37.209Z,17.70
2022-09-05T07:40:55.822Z,17.60
2022-09-05T07:44:11.179Z,17.70
2022-09-05T07:47:26.262Z,17.70
2022-09-05T07:54:30.037Z,17.80
2022-09-05T07:57:05.037Z,17.80
2022-09-05T07:57:32.530Z,17.90
2022-09-05T08:00:53.193Z,18.10
2022-09-05T08:04:00.409Z,18.00
2022-09-05T08:07:48.832Z,18.20
2022-09-05T08:11:24.066Z,18.10
2022-09-05T08:14:44.532Z,18.20
2022-09-05T08:18:12.875Z,18.50
2022-09-05T08:21:27.066Z,18.50
2022-09-05T08:24:46.908Z,18.70
2022-09-05T08:28:00.801Z,18.30
2022-09-05T08:31:09.333Z,18.30
2022-09-05T08:34:24.833Z,18.60
2022-09-05T08:37:44.314Z,18.60
2022-09-05T08:40:55.470Z,18.60
2022-09-05T08:46:41.707Z,18.70
2022-09-05T08:48:15.207Z,18.80
2022-09-05T08:51:41.165Z,18.90
2022-09-05T08:55:07.462Z,18.80
2022-09-05T08:58:30.463Z,18.90
2022-09-05T09:02:46.038Z,19.10
2022-09-05T09:06:12.602Z,19.40
2022-09-05T09:09:34.083Z,18.80
2022-09-05T09:13:03.850Z,19.30
2022-09-05T09:16:08.148Z,19.40
2022-09-05T09:19:18.667Z,19.50
2022-09-05T09:22:39.580Z,19.90
2022-09-05T09:26:18.374Z,19.90
2022-09-05T09:29:21.903Z,19.70
2022-09-05T09:32:26.910Z,19.70
2022-09-05T09:35:41.429Z,19.50
2022-09-05T09:39:11.920Z,19.90
2022-09-05T09:42:57.451Z,19.90
2022-09-05T09:46:10.664Z,19.90
2022-09-05T09:49:53.737Z,20.00
2022-09-05T09:53:15.017Z,20.30
2022-09-05T09:56:29.022Z,20.20
2022-09-05T09:59:33.732Z,19.90
2022-09-05T10:05:33.911Z,19.90
2022-09-05T10:10:45.729Z,20.80
2022-09-05T10:11:08.800Z,20.40
2022-09-05T10:13:47.297Z,21.20
2022-09-05T10:17:28.020Z,21.10
2022-09-05T10:20:57.906Z,21.20
2022-09-05T10:24:36.757Z,21.10
2022-09-05T10:28:00.471Z,21.40
2022-09-05T10:33:19.943Z,21.20
2022-09-05T10:35:24.598Z,20.80
2022-09-05T10:38:40.399Z,21.30
2022-09-05T10:42:06.951Z,21.50
2022-09-05T10:45:34.279Z,21.50
2022-09-05T10:48:53.644Z,21.00
2022-09-05T10:52:19.007Z,20.60
2022-09-05T10:55:26.365Z,20.40
2022-09-05T11:01:22.054Z,20.30
2022-09-05T11:02:36.722Z,20.30
2022-09-05T11:05:57.335Z,20.40
2022-09-05T11:09:07.007Z,20.50
2022-09-05T11:12:44.353Z,20.40
2022-09-05T11:16:04.333Z,20.50
2022-09-05T11:19:19.739Z,20.30
2022-09-05T11:22:24.605Z,20.30
2022-09-05T11:25:40.614Z,20.20
2022-09-05T11:29:00.045Z,20.10
2022-09-05T11:39:56.620Z,21.00
2022-09-05T11:39:59.503Z,20.40
2022-09-05T11:40:01.996Z,20.40
2022-09-05T11:43:28.272Z,21.30
2022-09-05T11:46:54.885Z,21.30
2022-09-05T11:50:22.154Z,20.80
2022-09-05T11:53:42.827Z,20.70
2022-09-05T11:57:21.662Z,20.70
2022-09-05T12:00:42.126Z,20.60
2022-09-05T12:04:16.796Z,20.80
2022-09-05T12:07:31.992Z,20.70
2022-09-05T12:10:53.719Z,20.70
2022-09-05T12:14:25.320Z,21.30
2022-09-05T12:17:52.783Z,21.40
2022-09-05T12:21:24.237Z,21.10
2022-09-05T12:25:25.230Z,21.00
2022-09-05T12:29:27.475Z,21.20
2022-09-05T12:33:03.364Z,21.10
2022-09-05T12:36:13.387Z,21.20
2022-09-05T12:40:21.335Z,21.30
2022-09-05T12:42:40.126Z,21.10
2022-09-05T12:45:58.150Z,20.90
2022-09-05T12:49:11.105Z,20.90
2022-09-05T12:52:20.153Z,20.90
2022-09-05T12:55:32.527Z,20.80
2022-09-05T13:03:07.649Z,21.40
2022-09-05T13:03:08.605Z,21.10
2022-09-05T13:05:52.159Z,21.30
2022-09-05T13:09:17.555Z,21.20
2022-09-05T13:15:03.005Z,21.30
2022-09-05T13:15:53.798Z,21.10
2022-09-05T13:19:10.078Z,21.10
2022-09-05T13:22:17.432Z,20.90
2022-09-05T13:25:27.188Z,20.80
2022-09-05T13:28:41.580Z,20.80
2022-09-05T13:38:00.926Z,20.70
2022-09-05T13:38:29.397Z,20.60
2022-09-05T13:39:14.039Z,20.50
2022-09-05T13:42:22.752Z,20.50
2022-09-05T13:45:27.053Z,20.40
2022-09-05T13:52:34.081Z,20.40
2022-09-05T13:56:02.991Z,20.30
2022-09-05T13:59:11.068Z,20.20
2022-09-05T14:02:27.820Z,20.30
2022-09-05T14:06:46.338Z,20.20
2022-09-05T14:09:58.540Z,20.20
2022-09-05T14:13:24.505Z,20.20
2022-09-05T14:16:33.939Z,20.30
2022-09-05T14:20:14.750Z,20.40
2022-09-05T14:23:18.525Z,20.40
2022-09-05T14:26:47.775Z,21.00
2022-09-05T14:29:56.643Z,22.30
2022-09-05T14:37:46.010Z,20.40
2022-09-05T14:37:49.770Z,20.30
2022-09-05T14:41:05.055Z,19.90
2022-09-05T14:44:09.578Z,19.80
2022-09-05T14:47:47.546Z,19.70
2022-09-05T14:50:52.556Z,19.60
2022-09-05T14:54:10.300Z,19.60
2022-09-05T15:02:39.148Z,19.60
2022-09-05T15:03:00.903Z,20.70
2022-09-05T15:04:41.007Z,19.70
2022-09-05T15:07:50.293Z,19.50
2022-09-05T15:12:25.203Z,19.60
2022-09-05T15:14:29.167Z,20.50
2022-09-05T15:17:32.776Z,22.30
2022-09-05T15:20:43.927Z,20.20
2022-09-05T15:24:17.533Z,19.60
2022-09-05T15:27:20.060Z,19.40
2022-09-05T15:30:35.869Z,19.20
2022-09-05T15:33:40.868Z,19.20
2022-09-05T15:36:42.962Z,19.10
2022-09-05T15:39:44.905Z,19.00
2022-09-05T15:42:56.998Z,18.90
2022-09-05T15:46:03.832Z,18.90
2022-09-05T16:02:00.486Z,19.00
2022-09-05T16:10:33.858Z,18.70
2022-09-05T16:10:38.773Z,18.50
2022-09-05T16:12:17.039Z,18.40
2022-09-05T16:19:06.508Z,18.30
2022-09-05T16:23:14.503Z,18.20
2022-09-05T16:23:29.335Z,18.10
2022-09-05T16:26:25.456Z,18.10
2022-09-05T16:29:30.962Z,18.10
2022-09-05T16:32:36.857Z,17.90
2022-09-05T16:36:12.879Z,17.80
2022-09-05T16:39:23.993Z,17.70
2022-09-05T16:42:45.960Z,17.50
2022-09-05T16:46:10.992Z,17.40
2022-09-05T16:49:19.382Z,17.10
2022-09-05T16:52:53.698Z,16.80
2022-09-05T16:56:04.653Z,16.70
2022-09-05T16:59:20.778Z,16.60
2022-09-05T17:02:32.146Z,16.50
2022-09-05T17:05:39.721Z,16.40
2022-09-05T17:08:41.697Z,16.40
2022-09-05T17:12:00.110Z,16.20
2022-09-05T17:15:08.877Z,16.10
2022-09-05T17:18:24.239Z,16.00
2022-09-05T17:24:38.719Z,15.90
2022-09-05T17:29:26.019Z,15.80
2022-09-05T17:29:42.135Z,15.80
2022-09-05T17:32:21.915Z,15.70
2022-09-05T17:35:33.241Z,15.80
2022-09-05T17:39:11.575Z,15.70
2022-09-05T17:42:42.415Z,15.70
2022-09-05T17:45:54.207Z,15.60
2022-09-05T17:49:19.356Z,15.50
2022-09-05T17:52:23.363Z,15.50
2022-09-05T17:55:40.448Z,15.30
2022-09-05T17:59:24.666Z,15.20
2022-09-05T18:02:26.661Z,15.00
2022-09-05T18:05:57.483Z,14.90
2022-09-05T18:09:09.033Z,14.90
2022-09-05T18:13:11.968Z,14.80
2022-09-05T18:16:11.204Z,14.80
2022-09-05T18:19:33.015Z,14.80
2022-09-05T18:22:44.078Z,14.70
2022-09-05T18:25:51.660Z,14.70
2022-09-05T18:29:08.018Z,14.60
2022-09-05T18:32:39.363Z,14.60
2022-09-05T18:36:25.842Z,14.60
2022-09-05T18:39:39.030Z,14.50
2022-09-05T18:42:43.567Z,14.30
2022-09-05T18:45:52.870Z,14.40
2022-09-05T18:50:21.963Z,14.20
2022-09-05T18:52:48.976Z,14.20
2022-09-05T18:56:21.103Z,14.20
2022-09-05T18:59:41.564Z,14.10
2022-09-05T19:02:58.816Z,14.00
2022-09-05T19:06:37.050Z,13.90
2022-09-05T19:09:35.746Z,13.90
2022-09-05T19:12:53.299Z,13.90
2022-09-05T19:16:21.084Z,13.70
2022-09-05T19:19:27.955Z,13.60
2022-09-05T19:23:08.420Z,13.50
2022-09-05T19:26:09.635Z,13.50
2022-09-05T19:36:55.956Z,13.40
2022-09-05T19:36:59.060Z,13.40
2022-09-05T19:37:03.447Z,13.40
2022-09-05T19:43:14.259Z,13.40
2022-09-05T19:47:28.746Z,13.30
2022-09-05T19:47:52.054Z,13.20
2022-09-05T19:50:09.378Z,13.00
2022-09-05T19:53:15.362Z,13.20
2022-09-05T19:56:18.541Z,13.10
2022-09-05T19:59:24.110Z,13.00
2022-09-05T20:02:33.244Z,12.90
2022-09-05T20:05:40.514Z,12.80
2022-09-05T20:08:42.695Z,12.80
2022-09-05T20:11:52.971Z,12.70
2022-09-05T20:14:55.590Z,12.60
2022-09-05T20:18:17.708Z,12.60
2022-09-05T20:21:30.416Z,12.60
2022-09-05T20:24:33.866Z,12.60
2022-09-05T20:27:36.424Z,12.50
2022-09-05T20:30:46.346Z,12.40
2022-09-05T20:34:19.239Z,12.40
2022-09-05T20:43:19.453Z,12.40
2022-09-05T20:43:24.590Z,12.30
2022-09-05T20:44:24.853Z,12.10
2022-09-05T20:54:07.425Z,12.00
2022-09-05T20:54:19.904Z,12.00
2022-09-05T20:54:34.947Z,12.00
2022-09-05T20:57:41.754Z,12.10
2022-09-05T21:01:21.163Z,12.00
2022-09-05T21:04:09.163Z,11.80
2022-09-05T21:07:19.620Z,11.80
2022-09-05T21:10:27.801Z,11.80
2022-09-05T21:13:45.407Z,11.90
2022-09-05T21:17:04.854Z,11.80
2022-09-05T21:20:23.053Z,11.70
2022-09-05T21:23:28.160Z,11.60
2022-09-05T21:26:30.996Z,11.60
2022-09-05T21:29:33.707Z,11.60
2022-09-05T21:32:41.569Z,11.50
2022-09-05T21:35:45.894Z,11.50
2022-09-05T21:38:47.855Z,11.50
2022-09-05T21:41:59.430Z,11.40
2022-09-05T21:47:43.541Z,11.40
2022-09-05T21:48:37.022Z,11.20
2022-09-05T21:51:39.067Z,11.20
2022-09-05T21:59:14.862Z,11.00
2022-09-05T21:59:20.125Z,10.90
2022-09-05T22:01:50.994Z,10.90
2022-09-05T22:04:54.146Z,10.90
2022-09-05T22:07:56.180Z,11.00
2022-09-05T22:10:58.132Z,10.90
2022-09-05T22:14:00.100Z,10.80
2022-09-05T22:17:04.939Z,10.70
2022-09-05T22:20:10.649Z,10.70
2022-09-05T22:23:13.089Z,10.70
2022-09-05T22:26:17.016Z,10.60
2022-09-05T22:29:19.003Z,10.50
2022-09-05T22:32:33.872Z,10.50
2022-09-05T22:35:39.280Z,10.50
2022-09-05T22:38:44.156Z,10.40
2022-09-05T22:41:46.122Z,10.40
2022-09-05T22:44:48.259Z,10.30
2022-09-05T22:47:50.248Z,10.30
2022-09-05T22:50:52.421Z,10.20
2022-09-05T22:53:54.373Z,10.20
2022-09-05T22:56:56.254Z,10.10
2022-09-05T22:59:58.145Z,10.00
2022-09-05T23:03:01.455Z,10.00
2022-09-05T23:06:07.263Z,10.00
2022-09-05T23:09:09.892Z,9.90
2022-09-05T23:12:11.863Z,9.80
2022-09-05T23:15:13.928Z,9.90
2022-09-05T23:18:16.384Z,9.90
2022-09-05T23:21:19.855Z,9.80
2022-09-05T23:24:23.036Z,9.80
2022-09-05T23:27:24.957Z,9.70
2022-09-05T23:30:26.911Z,9.70
2022-09-05T23:33:29.742Z,9.60
2022-09-05T23:36:31.665Z,9.60
2022-09-05T23:39:33.601Z,9.60
2022-09-05T23:57:40.533Z,9.40
